sensor_id;sensor_type;location;lat;lon;timestamp;pressure;altitude;pressure_sealevel;temperature;humidity
13604;BME280;24578;48.264;11.436;2023-03-22T00:01:29;96014.53;;;6.97;100.00
13604;BME280;24578;48.264;11.436;2023-03-22T00:04:52;96011.97;;;6.97;100.00
13604;BME280;24578;48.264;11.436;2023-03-22T00:08:13;95994.13;;;6.94;100.00
13604;BME280;24578;48.264;11.436;2023-03-22T00:11:36;96004.88;;;7.01;100.00
13604;BME280;24578;48.264;11.436;2023-03-22T00:14:57;95991.19;;;7.00;100.00
13604;BME280;24578;48.264;11.436;2023-03-22T00:18:20;95990.91;;;7.05;100.00
13604;BME280;24578;48.264;11.436;2023-03-22T00:21:42;95983.63;;;7.12;100.00
13604;BME280;24578;48.264;11.436;2023-03-22T00:25:05;95972.31;;;7.14;100.00
13604;BME280;24578;48.264;11.436;2023-03-22T00:28:27;95977.06;;;7.21;100.00
13604;BME280;24578;48.264;11.436;2023-03-22T00:31:48;95967.03;;;7.30;100.00
13604;BME280;24578;48.264;11.436;2023-03-22T00:35:12;95965.72;;;7.38;100.00
13604;BME280;24578;48.264;11.436;2023-03-22T00:38:34;95968.09;;;7.41;100.00
13604;BME280;24578;48.264;11.436;2023-03-22T00:41:59;95969.75;;;7.42;100.00
13604;BME280;24578;48.264;11.436;2023-03-22T00:45:21;95973.78;;;7.46;100.00
13604;BME280;24578;48.264;11.436;2023-03-22T00:48:43;95965.25;;;7.58;100.00
13604;BME280;24578;48.264;11.436;2023-03-22T00:52:05;95963.03;;;7.67;100.00
13604;BME280;24578;48.264;11.436;2023-03-22T00:55:27;95956.94;;;7.68;100.00
13604;BME280;24578;48.264;11.436;2023-03-22T00:58:49;95960.94;;;7.72;100.00
13604;BME280;24578;48.264;11.436;2023-03-22T01:02:11;95957.06;;;7.79;100.00
13604;BME280;24578;48.264;11.436;2023-03-22T01:05:34;95961.72;;;7.87;100.00
13604;BME280;24578;48.264;11.436;2023-03-22T01:08:56;95951.09;;;7.91;100.00
13604;BME280;24578;48.264;11.436;2023-03-22T01:12:18;95950.38;;;7.89;100.00
13604;BME280;24578;48.264;11.436;2023-03-22T01:15:40;95947.59;;;7.92;100.00
13604;BME280;24578;48.264;11.436;2023-03-22T01:19:02;95951.81;;;7.93;100.00
13604;BME280;24578;48.264;11.436;2023-03-22T01:22:24;95948.53;;;7.91;100.00
13604;BME280;24578;48.264;11.436;2023-03-22T01:25:46;95944.94;;;7.94;100.00
13604;BME280;24578;48.264;11.436;2023-03-22T01:29:08;95956.66;;;7.98;100.00
13604;BME280;24578;48.264;11.436;2023-03-22T01:32:29;95949.59;;;8.02;100.00
13604;BME280;24578;48.264;11.436;2023-03-22T01:35:51;95944.50;;;8.00;100.00
13604;BME280;24578;48.264;11.436;2023-03-22T01:39:13;95953.59;;;7.93;100.00
13604;BME280;24578;48.264;11.436;2023-03-22T01:42:35;95945.34;;;8.01;100.00
13604;BME280;24578;48.264;11.436;2023-03-22T01:45:57;95942.25;;;7.96;100.00
13604;BME280;24578;48.264;11.436;2023-03-22T01:49:32;95947.28;;;7.84;100.00
13604;BME280;24578;48.264;11.436;2023-03-22T01:52:56;95954.28;;;7.82;100.00
13604;BME280;24578;48.264;11.436;2023-03-22T01:56:23;95953.38;;;7.83;100.00
13604;BME280;24578;48.264;11.436;2023-03-22T01:59:46;95945.84;;;7.80;100.00
13604;BME280;24578;48.264;11.436;2023-03-22T02:03:13;95942.72;;;7.75;100.00
13604;BME280;24578;48.264;11.436;2023-03-22T02:06:38;95941.72;;;7.77;100.00
13604;BME280;24578;48.264;11.436;2023-03-22T02:10:00;95931.69;;;7.73;100.00
13604;BME280;24578;48.264;11.436;2023-03-22T02:17:29;95934.53;;;7.55;100.00
13604;BME280;24578;48.264;11.436;2023-03-22T02:21:27;95936.38;;;7.40;100.00
13604;BME280;24578;48.264;11.436;2023-03-22T02:32:29;95945.25;;;6.94;100.00
13604;BME280;24578;48.264;11.436;2023-03-22T02:36:23;95941.88;;;6.79;100.00
13604;BME280;24578;48.264;11.436;2023-03-22T02:39:59;95943.28;;;6.70;100.00
13604;BME280;24578;48.264;11.436;2023-03-22T02:43:45;95941.28;;;6.61;100.00
13604;BME280;24578;48.264;11.436;2023-03-22T02:47:22;95932.56;;;6.49;100.00
13604;BME280;24578;48.264;11.436;2023-03-22T02:51:14;95938.78;;;6.45;100.00
13604;BME280;24578;48.264;11.436;2023-03-22T02:54:50;95935.31;;;6.46;100.00
13604;BME280;24578;48.264;11.436;2023-03-22T03:01:44;95936.78;;;6.50;100.00
13604;BME280;24578;48.264;11.436;2023-03-22T03:05:10;95940.63;;;6.58;100.00
13604;BME280;24578;48.264;11.436;2023-03-22T03:08:36;95931.91;;;6.60;100.00
13604;BME280;24578;48.264;11.436;2023-03-22T03:11:59;95939.97;;;6.68;100.00
13604;BME280;24578;48.264;11.436;2023-03-22T03:15:21;95934.47;;;6.75;100.00
13604;BME280;24578;48.264;11.436;2023-03-22T03:25:58;95929.94;;;6.78;100.00
13604;BME280;24578;48.264;11.436;2023-03-22T03:29:43;95933.44;;;6.77;100.00
13604;BME280;24578;48.264;11.436;2023-03-22T03:33:15;95930.75;;;6.79;100.00
13604;BME280;24578;48.264;11.436;2023-03-22T03:36:45;95932.41;;;6.80;100.00
13604;BME280;24578;48.264;11.436;2023-03-22T03:40:16;95930.75;;;6.79;100.00
13604;BME280;24578;48.264;11.436;2023-03-22T03:43:40;95929.38;;;6.73;100.00
13604;BME280;24578;48.264;11.436;2023-03-22T03:47:06;95936.94;;;6.76;100.00
13604;BME280;24578;48.264;11.436;2023-03-22T03:50:29;95941.81;;;6.66;100.00
13604;BME280;24578;48.264;11.436;2023-03-22T03:53:50;95939.41;;;6.63;100.00
13604;BME280;24578;48.264;11.436;2023-03-22T03:57:12;95944.78;;;6.60;100.00
13604;BME280;24578;48.264;11.436;2023-03-22T04:00:36;95935.94;;;6.50;100.00
13604;BME280;24578;48.264;11.436;2023-03-22T04:03:58;95939.72;;;6.44;100.00
13604;BME280;24578;48.264;11.436;2023-03-22T04:07:19;95943.66;;;6.35;100.00
13604;BME280;24578;48.264;11.436;2023-03-22T04:10:41;95943.09;;;6.16;100.00
13604;BME280;24578;48.264;11.436;2023-03-22T04:14:03;95939.25;;;6.08;100.00
13604;BME280;24578;48.264;11.436;2023-03-22T04:17:25;95932.56;;;6.06;100.00
13604;BME280;24578;48.264;11.436;2023-03-22T04:20:49;95936.25;;;5.86;100.00
13604;BME280;24578;48.264;11.436;2023-03-22T04:24:14;95939.25;;;5.78;100.00
13604;BME280;24578;48.264;11.436;2023-03-22T04:27:37;95938.28;;;5.81;100.00
13604;BME280;24578;48.264;11.436;2023-03-22T04:30:59;95932.47;;;5.77;100.00
13604;BME280;24578;48.264;11.436;2023-03-22T04:34:23;95924.22;;;5.72;100.00
13604;BME280;24578;48.264;11.436;2023-03-22T04:37:45;95914.66;;;5.59;100.00
13604;BME280;24578;48.264;11.436;2023-03-22T04:41:07;95929.59;;;5.53;100.00
13604;BME280;24578;48.264;11.436;2023-03-22T04:44:29;95923.63;;;5.52;100.00
13604;BME280;24578;48.264;11.436;2023-03-22T04:47:51;95922.41;;;5.43;100.00
13604;BME280;24578;48.264;11.436;2023-03-22T04:51:12;95921.38;;;5.46;100.00
13604;BME280;24578;48.264;11.436;2023-03-22T04:54:34;95928.38;;;5.44;100.00
13604;BME280;24578;48.264;11.436;2023-03-22T04:57:56;95924.16;;;5.43;100.00
13604;BME280;24578;48.264;11.436;2023-03-22T05:01:18;95930.94;;;5.44;100.00
13604;BME280;24578;48.264;11.436;2023-03-22T05:04:39;95932.09;;;5.38;100.00
13604;BME280;24578;48.264;11.436;2023-03-22T05:08:01;95936.09;;;5.28;100.00
13604;BME280;24578;48.264;11.436;2023-03-22T05:11:23;95928.88;;;5.34;100.00
13604;BME280;24578;48.264;11.436;2023-03-22T05:14:48;95928.81;;;5.36;100.00
13604;BME280;24578;48.264;11.436;2023-03-22T05:18:10;95926.41;;;5.33;100.00
13604;BME280;24578;48.264;11.436;2023-03-22T05:21:34;95930.47;;;5.37;100.00
13604;BME280;24578;48.264;11.436;2023-03-22T05:24:57;95928.59;;;5.39;100.00
13604;BME280;24578;48.264;11.436;2023-03-22T05:28:20;95937.06;;;5.41;100.00
13604;BME280;24578;48.264;11.436;2023-03-22T05:31:42;95935.34;;;5.42;100.00
13604;BME280;24578;48.264;11.436;2023-03-22T05:35:03;95941.69;;;5.51;100.00
13604;BME280;24578;48.264;11.436;2023-03-22T05:38:25;95943.72;;;5.60;100.00
13604;BME280;24578;48.264;11.436;2023-03-22T05:41:47;95943.69;;;5.76;100.00
13604;BME280;24578;48.264;11.436;2023-03-22T05:45:10;95940.28;;;5.90;100.00
13604;BME280;24578;48.264;11.436;2023-03-22T05:48:32;95936.69;;;6.23;100.00
13604;BME280;24578;48.264;11.436;2023-03-22T05:51:54;95930.69;;;8.01;100.00
13604;BME280;24578;48.264;11.436;2023-03-22T05:55:16;95931.81;;;9.48;100.00
13604;BME280;24578;48.264;11.436;2023-03-22T05:58:38;95925.84;;;9.94;100.00
13604;BME280;24578;48.264;11.436;2023-03-22T06:02:01;95930.50;;;10.47;100.00
13604;BME280;24578;48.264;11.436;2023-03-22T06:05:23;95934.78;;;11.15;100.00
13604;BME280;24578;48.264;11.436;2023-03-22T06:08:45;95914.59;;;12.26;100.00
13604;BME280;24578;48.264;11.436;2023-03-22T06:12:06;95921.16;;;13.12;100.00
13604;BME280;24578;48.264;11.436;2023-03-22T06:15:28;95921.06;;;13.53;99.93
13604;BME280;24578;48.264;11.436;2023-03-22T06:18:50;95919.53;;;13.90;98.51
13604;BME280;24578;48.264;11.436;2023-03-22T06:22:13;95919.97;;;14.42;87.06
13604;BME280;24578;48.264;11.436;2023-03-22T06:25:35;95922.13;;;14.85;80.39
13604;BME280;24578;48.264;11.436;2023-03-22T06:28:56;95914.59;;;15.10;75.07
13604;BME280;24578;48.264;11.436;2023-03-22T06:32:18;95917.28;;;15.00;73.90
13604;BME280;24578;48.264;11.436;2023-03-22T06:35:40;95920.84;;;14.99;73.72
13604;BME280;24578;48.264;11.436;2023-03-22T06:39:02;95921.97;;;15.50;72.82
13604;BME280;24578;48.264;11.436;2023-03-22T06:42:25;95923.69;;;15.23;69.71
13604;BME280;24578;48.264;11.436;2023-03-22T06:45:47;95925.56;;;15.49;68.61
13604;BME280;24578;48.264;11.436;2023-03-22T06:49:09;95921.69;;;15.72;66.98
13604;BME280;24578;48.264;11.436;2023-03-22T06:52:31;95921.91;;;16.23;64.97
13604;BME280;24578;48.264;11.436;2023-03-22T06:55:52;95926.81;;;17.46;56.75
13604;BME280;24578;48.264;11.436;2023-03-22T06:59:14;95922.88;;;18.90;49.51
13604;BME280;24578;48.264;11.436;2023-03-22T07:02:36;95907.81;;;19.93;42.81
13604;BME280;24578;48.264;11.436;2023-03-22T07:06:03;95913.16;;;19.76;41.96
13604;BME280;24578;48.264;11.436;2023-03-22T07:09:25;95914.13;;;20.22;41.05
13604;BME280;24578;48.264;11.436;2023-03-22T07:12:47;95908.94;;;20.14;40.69
13604;BME280;24578;48.264;11.436;2023-03-22T07:16:10;95917.31;;;19.47;41.55
13604;BME280;24578;48.264;11.436;2023-03-22T07:19:33;95921.88;;;19.30;42.34
13604;BME280;24578;48.264;11.436;2023-03-22T07:22:55;95909.00;;;19.90;40.69
13604;BME280;24578;48.264;11.436;2023-03-22T07:26:17;95917.69;;;20.59;39.71
13604;BME280;24578;48.264;11.436;2023-03-22T07:29:38;95907.31;;;21.03;37.99
13604;BME280;24578;48.264;11.436;2023-03-22T07:33:00;95906.50;;;21.39;37.13
13604;BME280;24578;48.264;11.436;2023-03-22T07:36:22;95906.84;;;21.72;36.34
13604;BME280;24578;48.264;11.436;2023-03-22T07:39:46;95910.03;;;22.46;34.83
13604;BME280;24578;48.264;11.436;2023-03-22T07:43:07;95913.09;;;23.34;32.58
13604;BME280;24578;48.264;11.436;2023-03-22T07:46:32;95892.63;;;24.10;31.47
13604;BME280;24578;48.264;11.436;2023-03-22T07:49:54;95898.75;;;24.04;31.82
13604;BME280;24578;48.264;11.436;2023-03-22T07:53:16;95893.22;;;24.32;31.35
13604;BME280;24578;48.264;11.436;2023-03-22T07:56:37;95894.97;;;25.17;30.36
13604;BME280;24578;48.264;11.436;2023-03-22T07:59:59;95888.31;;;26.04;29.02
13604;BME280;24578;48.264;11.436;2023-03-22T08:03:21;95891.50;;;26.75;27.27
13604;BME280;24578;48.264;11.436;2023-03-22T08:06:43;95894.44;;;27.04;27.26
13604;BME280;24578;48.264;11.436;2023-03-22T08:10:07;95886.97;;;27.62;26.10
13604;BME280;24578;48.264;11.436;2023-03-22T08:13:29;95890.69;;;27.85;26.39
13604;BME280;24578;48.264;11.436;2023-03-22T08:16:50;95885.22;;;27.80;25.67
13604;BME280;24578;48.264;11.436;2023-03-22T08:20:12;95892.44;;;27.49;26.56
13604;BME280;24578;48.264;11.436;2023-03-22T08:23:34;95887.88;;;27.80;26.66
13604;BME280;24578;48.264;11.436;2023-03-22T08:26:56;95888.59;;;27.75;25.30
13604;BME280;24578;48.264;11.436;2023-03-22T08:30:18;95891.34;;;27.08;26.97
13604;BME280;24578;48.264;11.436;2023-03-22T08:33:40;95873.97;;;28.32;24.74
13604;BME280;24578;48.264;11.436;2023-03-22T08:37:03;95877.84;;;28.65;24.31
13604;BME280;24578;48.264;11.436;2023-03-22T08:40:25;95874.88;;;28.38;25.03
13604;BME280;24578;48.264;11.436;2023-03-22T08:44:10;95870.50;;;28.32;24.04
13604;BME280;24578;48.264;11.436;2023-03-22T08:47:32;95869.91;;;28.06;23.90
13604;BME280;24578;48.264;11.436;2023-03-22T08:51:14;95882.88;;;26.99;25.94
13604;BME280;24578;48.264;11.436;2023-03-22T08:54:37;95872.31;;;28.07;24.33
13604;BME280;24578;48.264;11.436;2023-03-22T08:58:00;95873.38;;;29.07;23.08
13604;BME280;24578;48.264;11.436;2023-03-22T09:01:21;95863.41;;;29.60;22.83
13604;BME280;24578;48.264;11.436;2023-03-22T09:04:43;95865.41;;;28.18;23.36
13604;BME280;24578;48.264;11.436;2023-03-22T09:08:05;95869.44;;;28.56;23.52
13604;BME280;24578;48.264;11.436;2023-03-22T09:11:27;95864.78;;;28.64;22.70
13604;BME280;24578;48.264;11.436;2023-03-22T09:14:49;95857.03;;;28.62;23.02
13604;BME280;24578;48.264;11.436;2023-03-22T09:18:11;95864.59;;;28.30;23.26
13604;BME280;24578;48.264;11.436;2023-03-22T09:21:33;95862.91;;;26.96;24.51
13604;BME280;24578;48.264;11.436;2023-03-22T09:24:54;95860.88;;;27.10;25.09
13604;BME280;24578;48.264;11.436;2023-03-22T09:28:16;95841.34;;;28.25;23.54
13604;BME280;24578;48.264;11.436;2023-03-22T09:31:40;95845.25;;;27.32;24.89
13604;BME280;24578;48.264;11.436;2023-03-22T09:35:02;95848.38;;;27.41;25.08
13604;BME280;24578;48.264;11.436;2023-03-22T09:38:24;95849.00;;;27.13;25.96
13604;BME280;24578;48.264;11.436;2023-03-22T09:41:59;95843.22;;;26.48;25.79
13604;BME280;24578;48.264;11.436;2023-03-22T09:45:34;95835.06;;;27.48;26.31
13604;BME280;24578;48.264;11.436;2023-03-22T09:49:02;95829.28;;;28.34;24.42
13604;BME280;24578;48.264;11.436;2023-03-22T09:52:25;95825.63;;;28.76;23.15
13604;BME280;24578;48.264;11.436;2023-03-22T09:56:14;95819.28;;;29.06;23.86
13604;BME280;24578;48.264;11.436;2023-03-22T09:59:43;95805.94;;;29.06;23.80
13604;BME280;24578;48.264;11.436;2023-03-22T10:03:29;95810.00;;;29.38;22.16
13604;BME280;24578;48.264;11.436;2023-03-22T10:07:08;95798.88;;;29.41;22.79
13604;BME280;24578;48.264;11.436;2023-03-22T10:10:32;95795.91;;;29.93;22.67
13604;BME280;24578;48.264;11.436;2023-03-22T10:14:23;95800.72;;;28.30;24.19
13604;BME280;24578;48.264;11.436;2023-03-22T10:17:52;95799.56;;;28.37;23.01
13604;BME280;24578;48.264;11.436;2023-03-22T10:21:17;95795.69;;;28.57;24.43
13604;BME280;24578;48.264;11.436;2023-03-22T10:24:45;95802.94;;;27.61;25.14
13604;BME280;24578;48.264;11.436;2023-03-22T10:28:21;95805.78;;;27.05;25.02
13604;BME280;24578;48.264;11.436;2023-03-22T10:31:44;95796.50;;;27.39;25.55
13604;BME280;24578;48.264;11.436;2023-03-22T10:35:07;95799.09;;;27.45;24.95
13604;BME280;24578;48.264;11.436;2023-03-22T10:38:39;95792.56;;;27.84;25.07
13604;BME280;24578;48.264;11.436;2023-03-22T10:42:17;95802.59;;;25.92;27.85
13604;BME280;24578;48.264;11.436;2023-03-22T10:45:41;95802.34;;;26.37;26.33
13604;BME280;24578;48.264;11.436;2023-03-22T10:49:04;95797.31;;;26.29;27.56
13604;BME280;24578;48.264;11.436;2023-03-22T10:52:41;95798.09;;;27.16;26.90
13604;BME280;24578;48.264;11.436;2023-03-22T10:56:15;95792.59;;;26.99;25.92
13604;BME280;24578;48.264;11.436;2023-03-22T10:59:51;95788.50;;;27.27;25.50
13604;BME280;24578;48.264;11.436;2023-03-22T11:06:56;95796.28;;;26.86;26.19
13604;BME280;24578;48.264;11.436;2023-03-22T11:10:27;95793.38;;;26.87;25.96
13604;BME280;24578;48.264;11.436;2023-03-22T11:14:06;95789.69;;;27.31;26.08
13604;BME280;24578;48.264;11.436;2023-03-22T11:17:29;95787.84;;;27.43;24.74
13604;BME280;24578;48.264;11.436;2023-03-22T11:20:58;95784.94;;;27.21;25.31
13604;BME280;24578;48.264;11.436;2023-03-22T11:24:24;95780.91;;;25.95;26.77
13604;BME280;24578;48.264;11.436;2023-03-22T11:31:26;95780.31;;;26.18;27.59
13604;BME280;24578;48.264;11.436;2023-03-22T11:34:58;95778.44;;;26.56;25.31
13604;BME280;24578;48.264;11.436;2023-03-22T11:38:35;95770.72;;;26.36;26.33
13604;BME280;24578;48.264;11.436;2023-03-22T11:42:01;95756.91;;;25.71;27.04
13604;BME280;24578;48.264;11.436;2023-03-22T11:45:31;95768.03;;;25.80;27.53
13604;BME280;24578;48.264;11.436;2023-03-22T11:48:57;95749.28;;;25.56;27.19
13604;BME280;24578;48.264;11.436;2023-03-22T11:52:23;95752.28;;;25.09;27.80
13604;BME280;24578;48.264;11.436;2023-03-22T11:55:48;95748.16;;;24.88;28.08
13604;BME280;24578;48.264;11.436;2023-03-22T11:59:25;95751.81;;;24.87;28.12
13604;BME280;24578;48.264;11.436;2023-03-22T12:03:09;95737.91;;;24.98;27.77
13604;BME280;24578;48.264;11.436;2023-03-22T12:06:39;95734.00;;;24.62;28.16
13604;BME280;24578;48.264;11.436;2023-03-22T12:20:57;95703.63;;;24.39;28.12
13604;BME280;24578;48.264;11.436;2023-03-22T12:24:29;95694.47;;;25.06;27.93
13604;BME280;24578;48.264;11.436;2023-03-22T12:28:05;95688.69;;;24.90;27.95
13604;BME280;24578;48.264;11.436;2023-03-22T12:31:38;95692.88;;;24.73;27.49
13604;BME280;24578;48.264;11.436;2023-03-22T12:35:04;95675.78;;;24.75;28.10
13604;BME280;24578;48.264;11.436;2023-03-22T12:38:41;95679.25;;;25.01;28.47
13604;BME280;24578;48.264;11.436;2023-03-22T12:42:19;95672.31;;;24.68;28.78
13604;BME280;24578;48.264;11.436;2023-03-22T12:45:47;95669.72;;;25.19;27.85
13604;BME280;24578;48.264;11.436;2023-03-22T12:49:37;95666.22;;;24.74;27.51
13604;BME280;24578;48.264;11.436;2023-03-22T12:53:02;95668.63;;;25.27;26.42
13604;BME280;24578;48.264;11.436;2023-03-22T12:56:45;95662.91;;;25.30;27.50
13604;BME280;24578;48.264;11.436;2023-03-22T13:00:13;95666.00;;;25.27;26.78
13604;BME280;24578;48.264;11.436;2023-03-22T13:03:43;95654.91;;;25.36;25.95
13604;BME280;24578;48.264;11.436;2023-03-22T13:13:58;95653.28;;;25.61;25.43
13604;BME280;24578;48.264;11.436;2023-03-22T13:21:15;95649.94;;;24.32;27.16
13604;BME280;24578;48.264;11.436;2023-03-22T13:25:03;95644.53;;;24.20;27.77
13604;BME280;24578;48.264;11.436;2023-03-22T13:28:29;95642.50;;;23.56;28.13
13604;BME280;24578;48.264;11.436;2023-03-22T13:32:20;95649.44;;;22.84;28.73
13604;BME280;24578;48.264;11.436;2023-03-22T13:35:46;95647.63;;;22.84;29.13
13604;BME280;24578;48.264;11.436;2023-03-22T13:39:15;95634.81;;;23.15;28.16
13604;BME280;24578;48.264;11.436;2023-03-22T13:42:39;95637.47;;;23.28;27.85
13604;BME280;24578;48.264;11.436;2023-03-22T13:49:42;95640.31;;;21.97;30.20
13604;BME280;24578;48.264;11.436;2023-03-22T13:53:15;95633.09;;;22.19;28.07
13604;BME280;24578;48.264;11.436;2023-03-22T13:56:58;95620.66;;;22.89;28.70
13604;BME280;24578;48.264;11.436;2023-03-22T14:00:32;95618.13;;;23.54;26.89
13604;BME280;24578;48.264;11.436;2023-03-22T14:04:00;95624.88;;;23.30;27.01
13604;BME280;24578;48.264;11.436;2023-03-22T14:07:42;95614.75;;;23.34;26.67
13604;BME280;24578;48.264;11.436;2023-03-22T14:11:20;95610.47;;;23.06;26.67
13604;BME280;24578;48.264;11.436;2023-03-22T14:14:47;95606.00;;;22.46;28.08
13604;BME280;24578;48.264;11.436;2023-03-22T14:18:40;95606.03;;;22.93;27.07
13604;BME280;24578;48.264;11.436;2023-03-22T14:22:13;95598.28;;;23.18;27.05
13604;BME280;24578;48.264;11.436;2023-03-22T14:25:40;95597.59;;;24.09;27.21
13604;BME280;24578;48.264;11.436;2023-03-22T14:29:05;95596.44;;;24.05;25.32
13604;BME280;24578;48.264;11.436;2023-03-22T14:32:29;95590.19;;;23.79;26.31
13604;BME280;24578;48.264;11.436;2023-03-22T14:36:01;95589.78;;;22.83;27.45
13604;BME280;24578;48.264;11.436;2023-03-22T14:39:33;95589.34;;;23.06;26.55
13604;BME280;24578;48.264;11.436;2023-03-22T14:46:39;95598.91;;;21.71;27.33
13604;BME280;24578;48.264;11.436;2023-03-22T14:50:13;95601.00;;;21.47;26.64
13604;BME280;24578;48.264;11.436;2023-03-22T14:53:38;95588.66;;;20.84;29.37
13604;BME280;24578;48.264;11.436;2023-03-22T14:57:01;95581.19;;;20.59;29.02
13604;BME280;24578;48.264;11.436;2023-03-22T15:00:23;95586.69;;;20.43;30.46
13604;BME280;24578;48.264;11.436;2023-03-22T15:03:48;95585.25;;;20.40;31.20
13604;BME280;24578;48.264;11.436;2023-03-22T15:07:16;95583.56;;;20.32;30.70
13604;BME280;24578;48.264;11.436;2023-03-22T15:10:39;95582.81;;;20.38;30.76
13604;BME280;24578;48.264;11.436;2023-03-22T15:14:02;95585.44;;;20.38;31.33
13604;BME280;24578;48.264;11.436;2023-03-22T15:17:24;95581.44;;;20.21;31.80
13604;BME280;24578;48.264;11.436;2023-03-22T15:20:48;95581.00;;;19.81;33.17
13604;BME280;24578;48.264;11.436;2023-03-22T15:24:33;95575.91;;;19.79;32.64
13604;BME280;24578;48.264;11.436;2023-03-22T15:27:56;95580.06;;;19.37;33.85
13604;BME280;24578;48.264;11.436;2023-03-22T15:31:31;95582.28;;;19.55;34.85
13604;BME280;24578;48.264;11.436;2023-03-22T15:34:54;95577.69;;;19.57;34.54
13604;BME280;24578;48.264;11.436;2023-03-22T15:38:26;95576.13;;;19.62;33.71
13604;BME280;24578;48.264;11.436;2023-03-22T15:41:52;95577.59;;;19.65;34.17
13604;BME280;24578;48.264;11.436;2023-03-22T15:45:18;95581.28;;;19.56;33.94
13604;BME280;24578;48.264;11.436;2023-03-22T15:48:58;95584.56;;;18.98;36.24
13604;BME280;24578;48.264;11.436;2023-03-22T15:52:24;95595.47;;;18.86;35.81
13604;BME280;24578;48.264;11.436;2023-03-22T15:55:46;95591.66;;;18.74;35.80
13604;BME280;24578;48.264;11.436;2023-03-22T15:59:29;95601.31;;;18.35;33.93
13604;BME280;24578;48.264;11.436;2023-03-22T16:02:56;95603.06;;;18.43;33.39
13604;BME280;24578;48.264;11.436;2023-03-22T16:06:18;95597.78;;;17.96;33.15
13604;BME280;24578;48.264;11.436;2023-03-22T16:09:39;95594.00;;;17.91;33.24
13604;BME280;24578;48.264;11.436;2023-03-22T16:13:08;95597.78;;;17.96;33.50
13604;BME280;24578;48.264;11.436;2023-03-22T16:16:30;95591.16;;;18.09;33.09
13604;BME280;24578;48.264;11.436;2023-03-22T16:19:52;95603.63;;;18.07;32.84
13604;BME280;24578;48.264;11.436;2023-03-22T16:23:17;95596.28;;;17.94;34.12
13604;BME280;24578;48.264;11.436;2023-03-22T16:26:39;95605.28;;;18.00;33.41
13604;BME280;24578;48.264;11.436;2023-03-22T16:30:02;95603.09;;;17.80;33.88
13604;BME280;24578;48.264;11.436;2023-03-22T16:33:24;95610.88;;;17.57;35.37
13604;BME280;24578;48.264;11.436;2023-03-22T16:36:46;95614.22;;;17.42;35.42
13604;BME280;24578;48.264;11.436;2023-03-22T16:40:16;95611.13;;;17.30;35.45
13604;BME280;24578;48.264;11.436;2023-03-22T16:43:40;95622.66;;;17.04;35.88
13604;BME280;24578;48.264;11.436;2023-03-22T16:47:02;95612.16;;;17.13;35.81
13604;BME280;24578;48.264;11.436;2023-03-22T16:50:27;95613.78;;;17.05;36.51
13604;BME280;24578;48.264;11.436;2023-03-22T16:53:51;95618.38;;;16.87;36.31
13604;BME280;24578;48.264;11.436;2023-03-22T16:57:19;95614.16;;;16.69;37.52
13604;BME280;24578;48.264;11.436;2023-03-22T17:00:41;95619.72;;;16.58;37.12
13604;BME280;24578;48.264;11.436;2023-03-22T17:04:03;95621.00;;;16.46;36.60
13604;BME280;24578;48.264;11.436;2023-03-22T17:07:28;95620.66;;;16.32;37.00
13604;BME280;24578;48.264;11.436;2023-03-22T17:10:53;95620.66;;;16.16;36.97
13604;BME280;24578;48.264;11.436;2023-03-22T17:14:15;95626.00;;;15.97;37.19
13604;BME280;24578;48.264;11.436;2023-03-22T17:17:37;95628.38;;;15.82;37.04
13604;BME280;24578;48.264;11.436;2023-03-22T17:20:59;95629.69;;;15.78;36.40
13604;BME280;24578;48.264;11.436;2023-03-22T17:24:21;95636.78;;;15.60;37.02
13604;BME280;24578;48.264;11.436;2023-03-22T17:27:43;95634.28;;;15.50;37.19
13604;BME280;24578;48.264;11.436;2023-03-22T17:31:05;95636.16;;;15.31;38.36
13604;BME280;24578;48.264;11.436;2023-03-22T17:34:27;95639.28;;;15.09;39.23
13604;BME280;24578;48.264;11.436;2023-03-22T17:37:52;95643.44;;;14.93;39.58
13604;BME280;24578;48.264;11.436;2023-03-22T17:41:16;95645.91;;;14.76;40.44
13604;BME280;24578;48.264;11.436;2023-03-22T17:44:51;95640.53;;;14.60;40.69
13604;BME280;24578;48.264;11.436;2023-03-22T17:48:13;95641.38;;;14.42;41.40
13604;BME280;24578;48.264;11.436;2023-03-22T17:51:35;95646.44;;;14.26;42.39
13604;BME280;24578;48.264;11.436;2023-03-22T17:54:56;95642.84;;;14.09;44.34
13604;BME280;24578;48.264;11.436;2023-03-22T17:58:18;95647.22;;;13.90;45.25
13604;BME280;24578;48.264;11.436;2023-03-22T18:01:40;95651.56;;;13.72;45.20
13604;BME280;24578;48.264;11.436;2023-03-22T18:05:04;95646.31;;;13.53;46.83
13604;BME280;24578;48.264;11.436;2023-03-22T18:08:26;95653.88;;;13.37;48.34
13604;BME280;24578;48.264;11.436;2023-03-22T18:11:48;95659.91;;;13.18;48.80
13604;BME280;24578;48.264;11.436;2023-03-22T18:15:12;95663.25;;;13.00;49.35
13604;BME280;24578;48.264;11.436;2023-03-22T18:18:34;95659.31;;;12.86;50.42
13604;BME280;24578;48.264;11.436;2023-03-22T18:21:56;95667.38;;;12.73;50.51
13604;BME280;24578;48.264;11.436;2023-03-22T18:25:20;95661.81;;;12.58;51.78
13604;BME280;24578;48.264;11.436;2023-03-22T18:28:42;95659.47;;;12.45;52.21
13604;BME280;24578;48.264;11.436;2023-03-22T18:32:04;95659.75;;;12.32;52.77
13604;BME280;24578;48.264;11.436;2023-03-22T18:35:26;95670.94;;;12.23;52.30
13604;BME280;24578;48.264;11.436;2023-03-22T18:38:51;95675.16;;;12.14;52.60
13604;BME280;24578;48.264;11.436;2023-03-22T18:42:13;95676.09;;;12.03;53.42
13604;BME280;24578;48.264;11.436;2023-03-22T18:45:36;95660.78;;;11.91;53.37
13604;BME280;24578;48.264;11.436;2023-03-22T18:48:58;95685.56;;;11.83;53.87
13604;BME280;24578;48.264;11.436;2023-03-22T18:52:19;95674.38;;;11.73;54.48
13604;BME280;24578;48.264;11.436;2023-03-22T18:55:41;95679.38;;;11.65;54.97